Houlton, Wisconsin
Current Conditions -  °F | °C
As of 1:51 AM on Monday 24 Nov 2014 (Local Time) from K21D Reporting Station
Light Snow Light Snow  
Wind Chill: 23°   Ceiling: 700
Heat Index: 32°   Visibility: 3mi
Dew Point: 32°   Wind: 13mph
Humidity: 100%   Direction: 310°NW
Pressure: 29.29"   Gusts: NA
Location:  45.067°N, 92.7557°W
Report Text: K21D 240751Z AUTO 31011KT 3SM -SN OVC007 00/00 A2929 RMK AO2
Loading
Personal Weather Stations






























Interactive Weather Map New forecast layout! Learn more

10-Day Weather Forecast

Advertisements
Track Severe Weather on mobile